EDTL

Lahr Airport

Germany
METAR EDTL 200650Z 01006KT 8000 BKN038 M01/M03 Q1016
Observed Flight Rules
Feb-20 @ 06:50 UTC (26 minutes ago) Marginal Visual Flight Rules
Wind Visibility Clouds
10° at 6 knots 7,998 meters
  • Broken at 3,800' AGL
Temperatures Readings
Current -1°C / 30°F
Dewpoint -3°C / 27°F
Humidity 86%
Altimeter 30" Hg
Pressure 1016 hPa
Elevation 156
METAR EDTL 200650Z 01006KT 8000 BKN038 M01/M03 Q1016
Observed Flight Rules
Feb-20 @ 06:50 UTC
(26 minutes ago)
MVFR
Wind Visibility
10° at 6 knots 7,998 meters
Clouds
  • Broken at 3,800' AGL
Temperature Dewpoint
-1°C / 30°F -3°C / 27°F
Humidity Altimeter Pressure
86% 30" Hg 1016 hPa